Terminal Aerodrome Forecast
Issued by NWS Cleveland, OH

Home | Current Version | Previous Version | Graphics & Text | Print | Product List | Glossary On
Versions: 1 2 3 4 5 6 7 8 9 10 11 12 13 14 15 16 17 18 19
599
FTUS41 KCLE 271128
TAFTOL
TAF
KTOL 271128Z 2712/2812 06010KT P6SM SCT250
     FM271700 06015G22KT P6SM SKC
     FM280100 06012KT P6SM SCT060 OVC150
     FM280600 05010KT P6SM VCSH BKN050=

USA.gov is the U.S. government's official web portal to all federal, state and local government web resources and services.